sensor_id;sensor_type;location;lat;lon;timestamp;pressure;altitude;pressure_sealevel;temperature;humidity
64602;BME280;51013;42.630;23.192;2022-11-09T00:00:44;92874.09;;;6.45;85.36
64602;BME280;51013;42.630;23.192;2022-11-09T00:03:11;92916.88;;;6.57;85.76
64602;BME280;51013;42.630;23.192;2022-11-09T00:05:40;92781.91;;;5.68;85.92
64602;BME280;51013;42.630;23.192;2022-11-09T00:08:08;92914.19;;;6.49;86.12
64602;BME280;51013;42.630;23.192;2022-11-09T00:10:36;92801.22;;;5.67;86.05
64602;BME280;51013;42.630;23.192;2022-11-09T00:13:04;92915.56;;;6.46;86.26
64602;BME280;51013;42.630;23.192;2022-11-09T00:15:31;92760.25;;;5.45;85.61
64602;BME280;51013;42.630;23.192;2022-11-09T00:17:59;92908.50;;;6.47;85.76
64602;BME280;51013;42.630;23.192;2022-11-09T00:20:28;92913.72;;;6.47;85.69
64602;BME280;51013;42.630;23.192;2022-11-09T00:22:57;92918.13;;;6.37;85.85
64602;BME280;51013;42.630;23.192;2022-11-09T00:25:25;92860.75;;;6.01;85.73
64602;BME280;51013;42.630;23.192;2022-11-09T00:27:54;92918.16;;;6.24;86.22
64602;BME280;51013;42.630;23.192;2022-11-09T00:30:21;92832.69;;;5.70;86.40
64602;BME280;51013;42.630;23.192;2022-11-09T00:32:48;92708.84;;;5.00;86.19
64602;BME280;51013;42.630;23.192;2022-11-09T00:35:15;92846.28;;;5.81;85.56
64602;BME280;51013;42.630;23.192;2022-11-09T00:37:42;92832.97;;;5.69;85.21
64602;BME280;51013;42.630;23.192;2022-11-09T00:40:11;92908.47;;;6.24;85.16
64602;BME280;51013;42.630;23.192;2022-11-09T00:42:38;92911.88;;;6.25;85.32
64602;BME280;51013;42.630;23.192;2022-11-09T00:45:06;92907.38;;;6.16;85.73
64602;BME280;51013;42.630;23.192;2022-11-09T00:47:33;92800.50;;;5.38;85.76
64602;BME280;51013;42.630;23.192;2022-11-09T00:50:00;92843.50;;;5.63;85.99
64602;BME280;51013;42.630;23.192;2022-11-09T00:52:26;92908.66;;;6.05;85.73
64602;BME280;51013;42.630;23.192;2022-11-09T00:54:55;92907.88;;;6.05;85.51
64602;BME280;51013;42.630;23.192;2022-11-09T00:57:23;92905.44;;;6.08;85.69
64602;BME280;51013;42.630;23.192;2022-11-09T00:59:50;92887.78;;;5.91;85.67
64602;BME280;51013;42.630;23.192;2022-11-09T01:02:18;92913.75;;;6.10;85.49
64602;BME280;51013;42.630;23.192;2022-11-09T01:04:44;92793.19;;;5.27;85.69
64602;BME280;51013;42.630;23.192;2022-11-09T01:07:11;92905.09;;;6.01;85.27
64602;BME280;51013;42.630;23.192;2022-11-09T01:09:38;92913.28;;;5.94;85.84
64602;BME280;51013;42.630;23.192;2022-11-09T01:12:05;92889.16;;;5.75;85.41
64602;BME280;51013;42.630;23.192;2022-11-09T01:14:33;92777.22;;;5.06;85.49
64602;BME280;51013;42.630;23.192;2022-11-09T01:17:01;92813.75;;;5.28;85.53
64602;BME280;51013;42.630;23.192;2022-11-09T01:19:28;92813.28;;;5.26;85.92
64602;BME280;51013;42.630;23.192;2022-11-09T01:21:56;92852.13;;;5.50;85.56
64602;BME280;51013;42.630;23.192;2022-11-09T01:24:23;92910.88;;;5.84;85.63
64602;BME280;51013;42.630;23.192;2022-11-09T01:26:50;92850.88;;;5.48;85.77
64602;BME280;51013;42.630;23.192;2022-11-09T01:29:17;92861.78;;;5.50;85.49
64602;BME280;51013;42.630;23.192;2022-11-09T01:31:45;92852.06;;;5.41;85.56
64602;BME280;51013;42.630;23.192;2022-11-09T01:34:13;92880.88;;;5.59;85.34
64602;BME280;51013;42.630;23.192;2022-11-09T01:36:41;92575.44;;;3.47;84.98
64602;BME280;51013;42.630;23.192;2022-11-09T01:39:08;92906.25;;;5.67;85.77
64602;BME280;51013;42.630;23.192;2022-11-09T01:41:35;92826.97;;;5.18;85.42
64602;BME280;51013;42.630;23.192;2022-11-09T01:44:08;92891.03;;;5.60;85.43
64602;BME280;51013;42.630;23.192;2022-11-09T01:46:39;92886.28;;;5.62;85.58
64602;BME280;51013;42.630;23.192;2022-11-09T01:49:14;92889.19;;;5.61;86.50
64602;BME280;51013;42.630;23.192;2022-11-09T01:51:48;92589.00;;;3.58;85.99
64602;BME280;51013;42.630;23.192;2022-11-09T01:54:19;92860.16;;;5.40;86.25
64602;BME280;51013;42.630;23.192;2022-11-09T01:56:50;92887.94;;;5.58;85.81
64602;BME280;51013;42.630;23.192;2022-11-09T01:59:22;92856.41;;;5.32;86.04
64602;BME280;51013;42.630;23.192;2022-11-09T02:01:52;92803.53;;;4.90;86.15
64602;BME280;51013;42.630;23.192;2022-11-09T02:04:22;92776.03;;;4.70;85.97
64602;BME280;51013;42.630;23.192;2022-11-09T02:06:50;92903.00;;;5.48;86.15
64602;BME280;51013;42.630;23.192;2022-11-09T02:09:22;92840.59;;;5.01;85.56
64602;BME280;51013;42.630;23.192;2022-11-09T02:11:50;92846.84;;;5.00;85.41
64602;BME280;51013;42.630;23.192;2022-11-09T02:14:18;92805.75;;;4.83;85.24
64602;BME280;51013;42.630;23.192;2022-11-09T02:16:46;92895.94;;;5.34;85.28
64602;BME280;51013;42.630;23.192;2022-11-09T02:19:14;92901.56;;;5.28;85.65
64602;BME280;51013;42.630;23.192;2022-11-09T02:21:42;92845.00;;;4.87;85.65
64602;BME280;51013;42.630;23.192;2022-11-09T02:24:10;92862.84;;;4.93;86.00
64602;BME280;51013;42.630;23.192;2022-11-09T02:26:40;92859.75;;;4.91;86.25
64602;BME280;51013;42.630;23.192;2022-11-09T02:29:12;92901.13;;;5.07;86.40
64602;BME280;51013;42.630;23.192;2022-11-09T02:31:43;92904.16;;;5.14;86.57
64602;BME280;51013;42.630;23.192;2022-11-09T02:34:13;92876.34;;;4.95;86.88
64602;BME280;51013;42.630;23.192;2022-11-09T02:36:43;92900.94;;;5.17;86.37
64602;BME280;51013;42.630;23.192;2022-11-09T02:39:12;92906.16;;;5.03;87.40
64602;BME280;51013;42.630;23.192;2022-11-09T02:41:42;92895.16;;;5.06;88.02
64602;BME280;51013;42.630;23.192;2022-11-09T02:44:10;92890.72;;;5.07;88.22
64602;BME280;51013;42.630;23.192;2022-11-09T02:46:37;92875.00;;;4.98;89.33
64602;BME280;51013;42.630;23.192;2022-11-09T02:49:04;92895.16;;;5.06;89.51
64602;BME280;51013;42.630;23.192;2022-11-09T02:51:32;92871.16;;;4.95;89.72
64602;BME280;51013;42.630;23.192;2022-11-09T02:54:01;92736.28;;;3.95;89.87
64602;BME280;51013;42.630;23.192;2022-11-09T02:56:30;92897.03;;;5.19;90.39
64602;BME280;51013;42.630;23.192;2022-11-09T02:58:57;92874.34;;;5.06;90.33
64602;BME280;51013;42.630;23.192;2022-11-09T03:01:23;92835.16;;;4.84;90.28
64602;BME280;51013;42.630;23.192;2022-11-09T03:03:50;92885.31;;;5.17;89.72
64602;BME280;51013;42.630;23.192;2022-11-09T03:06:17;92813.44;;;4.74;89.54
64602;BME280;51013;42.630;23.192;2022-11-09T03:08:44;92602.91;;;3.34;89.53
64602;BME280;51013;42.630;23.192;2022-11-09T03:11:12;92905.81;;;5.37;89.03
64602;BME280;51013;42.630;23.192;2022-11-09T03:13:39;92914.47;;;5.33;88.91
64602;BME280;51013;42.630;23.192;2022-11-09T03:16:08;92907.13;;;5.35;89.05
64602;BME280;51013;42.630;23.192;2022-11-09T03:18:35;92833.13;;;4.80;88.65
64602;BME280;51013;42.630;23.192;2022-11-09T03:21:04;92880.44;;;5.15;88.74
64602;BME280;51013;42.630;23.192;2022-11-09T03:23:32;92866.53;;;5.06;88.26
64602;BME280;51013;42.630;23.192;2022-11-09T03:25:59;92860.63;;;5.00;87.98
64602;BME280;51013;42.630;23.192;2022-11-09T03:28:27;92864.50;;;5.03;88.04
64602;BME280;51013;42.630;23.192;2022-11-09T03:30:54;92911.09;;;5.32;87.57
64602;BME280;51013;42.630;23.192;2022-11-09T03:33:21;92909.94;;;5.25;87.62
64602;BME280;51013;42.630;23.192;2022-11-09T03:35:48;92910.81;;;5.20;87.82
64602;BME280;51013;42.630;23.192;2022-11-09T03:38:15;92912.06;;;5.22;87.33
64602;BME280;51013;42.630;23.192;2022-11-09T03:40:42;92882.25;;;5.01;87.45
64602;BME280;51013;42.630;23.192;2022-11-09T03:43:09;92926.44;;;5.20;87.52
64602;BME280;51013;42.630;23.192;2022-11-09T03:45:38;92919.59;;;5.24;87.24
64602;BME280;51013;42.630;23.192;2022-11-09T03:48:07;92916.78;;;5.20;87.57
64602;BME280;51013;42.630;23.192;2022-11-09T03:50:34;92879.25;;;4.94;87.16
64602;BME280;51013;42.630;23.192;2022-11-09T03:53:05;92872.69;;;4.82;86.92
64602;BME280;51013;42.630;23.192;2022-11-09T03:55:34;92915.13;;;5.11;87.22
64602;BME280;51013;42.630;23.192;2022-11-09T03:58:00;92875.78;;;4.85;87.03
64602;BME280;51013;42.630;23.192;2022-11-09T04:00:28;92878.44;;;4.79;87.22
64602;BME280;51013;42.630;23.192;2022-11-09T04:02:56;92760.63;;;3.99;86.97
64602;BME280;51013;42.630;23.192;2022-11-09T04:05:24;92926.63;;;5.10;86.77
64602;BME280;51013;42.630;23.192;2022-11-09T04:07:53;92907.13;;;5.07;86.91
64602;BME280;51013;42.630;23.192;2022-11-09T04:10:21;92920.25;;;5.02;87.09
64602;BME280;51013;42.630;23.192;2022-11-09T04:12:49;92916.59;;;5.03;86.78
64602;BME280;51013;42.630;23.192;2022-11-09T04:15:16;92916.88;;;5.01;86.58
64602;BME280;51013;42.630;23.192;2022-11-09T04:17:43;92903.34;;;4.86;86.95
64602;BME280;51013;42.630;23.192;2022-11-09T04:20:12;92792.94;;;3.93;86.17
64602;BME280;51013;42.630;23.192;2022-11-09T04:22:39;92876.44;;;4.44;86.77
64602;BME280;51013;42.630;23.192;2022-11-09T04:25:07;92923.47;;;4.80;87.11
64602;BME280;51013;42.630;23.192;2022-11-09T04:27:35;92912.19;;;4.71;87.30
64602;BME280;51013;42.630;23.192;2022-11-09T04:30:02;92853.19;;;4.33;87.67
64602;BME280;51013;42.630;23.192;2022-11-09T04:32:29;92935.66;;;4.85;87.74
64602;BME280;51013;42.630;23.192;2022-11-09T04:34:56;92922.63;;;4.85;87.31
64602;BME280;51013;42.630;23.192;2022-11-09T04:37:26;92926.56;;;4.82;86.83
64602;BME280;51013;42.630;23.192;2022-11-09T04:39:53;92877.88;;;4.50;86.86
64602;BME280;51013;42.630;23.192;2022-11-09T04:42:20;92926.84;;;4.80;86.96
64602;BME280;51013;42.630;23.192;2022-11-09T04:44:46;92936.47;;;4.80;86.70
64602;BME280;51013;42.630;23.192;2022-11-09T04:47:13;92822.06;;;3.95;87.01
64602;BME280;51013;42.630;23.192;2022-11-09T04:49:40;92761.72;;;3.60;87.17
64602;BME280;51013;42.630;23.192;2022-11-09T04:52:07;92768.91;;;3.50;87.43
64602;BME280;51013;42.630;23.192;2022-11-09T04:54:36;92939.38;;;4.78;92.75
64602;BME280;51013;42.630;23.192;2022-11-09T04:57:05;92934.84;;;4.84;89.87
64602;BME280;51013;42.630;23.192;2022-11-09T04:59:32;92861.97;;;4.37;89.68
64602;BME280;51013;42.630;23.192;2022-11-09T05:01:59;92904.72;;;4.64;90.08
64602;BME280;51013;42.630;23.192;2022-11-09T05:04:25;92789.66;;;3.88;90.11
64602;BME280;51013;42.630;23.192;2022-11-09T05:06:52;92906.66;;;4.58;90.55
64602;BME280;51013;42.630;23.192;2022-11-09T05:09:19;92894.41;;;4.59;90.54
64602;BME280;51013;42.630;23.192;2022-11-09T05:11:50;92869.59;;;4.48;90.90
64602;BME280;51013;42.630;23.192;2022-11-09T05:14:17;92916.16;;;4.82;91.19
64602;BME280;51013;42.630;23.192;2022-11-09T05:16:44;92787.69;;;3.98;91.65
64602;BME280;51013;42.630;23.192;2022-11-09T05:19:11;92580.00;;;2.71;92.58
64602;BME280;51013;42.630;23.192;2022-11-09T05:21:38;92947.25;;;5.06;93.54
64602;BME280;51013;42.630;23.192;2022-11-09T05:24:06;92945.63;;;5.10;94.51
64602;BME280;51013;42.630;23.192;2022-11-09T05:26:33;92951.41;;;5.07;96.21
64602;BME280;51013;42.630;23.192;2022-11-09T05:29:04;92833.03;;;4.25;96.90
64602;BME280;51013;42.630;23.192;2022-11-09T05:31:32;92962.81;;;5.11;96.71
64602;BME280;51013;42.630;23.192;2022-11-09T05:33:59;92798.19;;;4.07;96.75
64602;BME280;51013;42.630;23.192;2022-11-09T05:36:27;92892.50;;;4.65;97.26
64602;BME280;51013;42.630;23.192;2022-11-09T05:38:55;92970.22;;;5.18;97.80
64602;BME280;51013;42.630;23.192;2022-11-09T05:41:22;92961.25;;;5.10;97.25
64602;BME280;51013;42.630;23.192;2022-11-09T05:43:49;92951.91;;;5.23;96.99
64602;BME280;51013;42.630;23.192;2022-11-09T05:46:17;92809.41;;;4.21;96.54
64602;BME280;51013;42.630;23.192;2022-11-09T05:48:45;92780.81;;;3.89;96.55
64602;BME280;51013;42.630;23.192;2022-11-09T05:51:13;92901.91;;;4.93;97.31
64602;BME280;51013;42.630;23.192;2022-11-09T05:53:43;92959.25;;;5.35;97.27
64602;BME280;51013;42.630;23.192;2022-11-09T05:56:12;92896.00;;;4.88;96.89
64602;BME280;51013;42.630;23.192;2022-11-09T05:58:39;92921.50;;;5.05;96.67
64602;BME280;51013;42.630;23.192;2022-11-09T06:01:10;92971.72;;;5.38;96.57
64602;BME280;51013;42.630;23.192;2022-11-09T06:03:42;92976.81;;;5.43;96.74
64602;BME280;51013;42.630;23.192;2022-11-09T06:06:10;92913.78;;;4.99;96.82
64602;BME280;51013;42.630;23.192;2022-11-09T06:08:38;92979.53;;;5.52;96.82
64602;BME280;51013;42.630;23.192;2022-11-09T06:11:07;92989.50;;;5.50;96.59
64602;BME280;51013;42.630;23.192;2022-11-09T06:13:34;92723.56;;;3.75;96.13
64602;BME280;51013;42.630;23.192;2022-11-09T06:16:04;92986.00;;;5.54;96.34
64602;BME280;51013;42.630;23.192;2022-11-09T06:18:32;92909.63;;;4.98;95.80
64602;BME280;51013;42.630;23.192;2022-11-09T06:21:03;92796.66;;;4.39;95.56
64602;BME280;51013;42.630;23.192;2022-11-09T06:23:30;92844.41;;;4.76;95.93
64602;BME280;51013;42.630;23.192;2022-11-09T06:25:59;92936.19;;;5.42;96.20
64602;BME280;51013;42.630;23.192;2022-11-09T06:28:27;92991.72;;;5.84;96.21
64602;BME280;51013;42.630;23.192;2022-11-09T06:30:56;92987.47;;;5.88;96.59
64602;BME280;51013;42.630;23.192;2022-11-09T06:33:23;92913.59;;;5.51;97.31
64602;BME280;51013;42.630;23.192;2022-11-09T06:35:50;92938.22;;;5.73;97.12
64602;BME280;51013;42.630;23.192;2022-11-09T06:38:18;92842.88;;;5.16;97.24
64602;BME280;51013;42.630;23.192;2022-11-09T06:40:45;92959.44;;;5.94;98.03
64602;BME280;51013;42.630;23.192;2022-11-09T06:43:12;92989.69;;;6.22;98.39
64602;BME280;51013;42.630;23.192;2022-11-09T06:45:39;92986.84;;;6.33;99.32
64602;BME280;51013;42.630;23.192;2022-11-09T06:48:07;92919.00;;;5.96;99.83
64602;BME280;51013;42.630;23.192;2022-11-09T06:50:34;92996.06;;;6.53;100.00
64602;BME280;51013;42.630;23.192;2022-11-09T06:53:03;92996.16;;;6.61;100.00
64602;BME280;51013;42.630;23.192;2022-11-09T06:55:34;92960.94;;;6.36;99.99
64602;BME280;51013;42.630;23.192;2022-11-09T06:58:04;92993.84;;;6.82;100.00
64602;BME280;51013;42.630;23.192;2022-11-09T07:00:31;92783.00;;;5.53;100.00
64602;BME280;51013;42.630;23.192;2022-11-09T07:02:59;92954.63;;;6.74;100.00
64602;BME280;51013;42.630;23.192;2022-11-09T07:05:25;92986.78;;;7.06;100.00
64602;BME280;51013;42.630;23.192;2022-11-09T07:07:53;92990.22;;;7.15;100.00
64602;BME280;51013;42.630;23.192;2022-11-09T07:10:19;92980.59;;;7.24;100.00
64602;BME280;51013;42.630;23.192;2022-11-09T07:12:48;92974.31;;;7.34;100.00
64602;BME280;51013;42.630;23.192;2022-11-09T07:15:15;92985.63;;;7.52;100.00
64602;BME280;51013;42.630;23.192;2022-11-09T07:17:42;92975.69;;;7.62;100.00
64602;BME280;51013;42.630;23.192;2022-11-09T07:20:11;92984.81;;;7.74;100.00
64602;BME280;51013;42.630;23.192;2022-11-09T07:22:40;92866.94;;;7.13;100.00
64602;BME280;51013;42.630;23.192;2022-11-09T07:25:10;92922.16;;;7.60;100.00
64602;BME280;51013;42.630;23.192;2022-11-09T07:27:37;92810.66;;;6.98;100.00
64602;BME280;51013;42.630;23.192;2022-11-09T07:30:07;92952.09;;;8.02;100.00
64602;BME280;51013;42.630;23.192;2022-11-09T07:32:34;92718.78;;;6.56;100.00
64602;BME280;51013;42.630;23.192;2022-11-09T07:35:03;92974.53;;;8.52;100.00
64602;BME280;51013;42.630;23.192;2022-11-09T07:37:30;92901.50;;;8.16;100.00
64602;BME280;51013;42.630;23.192;2022-11-09T07:39:57;92950.50;;;8.59;100.00
64602;BME280;51013;42.630;23.192;2022-11-09T07:42:24;92797.59;;;7.73;100.00
64602;BME280;51013;42.630;23.192;2022-11-09T07:44:51;92985.63;;;9.01;100.00
64602;BME280;51013;42.630;23.192;2022-11-09T07:47:20;92976.97;;;9.10;100.00
64602;BME280;51013;42.630;23.192;2022-11-09T07:49:47;92911.03;;;8.81;100.00
64602;BME280;51013;42.630;23.192;2022-11-09T07:52:14;92979.88;;;9.26;100.00
64602;BME280;51013;42.630;23.192;2022-11-09T07:54:41;92814.19;;;8.29;100.00
64602;BME280;51013;42.630;23.192;2022-11-09T07:57:08;92976.16;;;9.35;100.00
64602;BME280;51013;42.630;23.192;2022-11-09T07:59:35;92988.16;;;9.45;100.00
64602;BME280;51013;42.630;23.192;2022-11-09T08:02:07;92840.38;;;8.38;100.00
64602;BME280;51013;42.630;23.192;2022-11-09T08:04:35;92859.47;;;8.56;100.00
64602;BME280;51013;42.630;23.192;2022-11-09T08:07:02;92866.84;;;8.62;100.00
64602;BME280;51013;42.630;23.192;2022-11-09T08:09:29;92986.16;;;9.42;100.00
64602;BME280;51013;42.630;23.192;2022-11-09T08:11:56;92922.69;;;9.19;100.00
64602;BME280;51013;42.630;23.192;2022-11-09T08:14:23;92985.66;;;9.57;100.00
64602;BME280;51013;42.630;23.192;2022-11-09T08:16:50;92992.09;;;9.69;100.00
64602;BME280;51013;42.630;23.192;2022-11-09T08:19:17;92980.53;;;9.70;100.00
64602;BME280;51013;42.630;23.192;2022-11-09T08:21:46;92792.94;;;8.39;100.00
64602;BME280;51013;42.630;23.192;2022-11-09T08:24:13;92966.81;;;9.64;100.00
64602;BME280;51013;42.630;23.192;2022-11-09T08:26:41;92984.50;;;9.76;100.00
64602;BME280;51013;42.630;23.192;2022-11-09T08:29:08;92725.22;;;8.20;100.00
64602;BME280;51013;42.630;23.192;2022-11-09T08:31:37;92769.34;;;8.57;100.00
64602;BME280;51013;42.630;23.192;2022-11-09T08:34:04;92985.00;;;10.08;100.00
64602;BME280;51013;42.630;23.192;2022-11-09T08:36:31;92939.50;;;9.95;97.61
64602;BME280;51013;42.630;23.192;2022-11-09T08:39:04;92987.47;;;10.34;98.95
64602;BME280;51013;42.630;23.192;2022-11-09T08:41:31;92920.44;;;10.07;98.26
64602;BME280;51013;42.630;23.192;2022-11-09T08:43:58;92986.47;;;10.68;97.71
64602;BME280;51013;42.630;23.192;2022-11-09T08:46:25;92818.56;;;9.58;97.27
64602;BME280;51013;42.630;23.192;2022-11-09T08:48:52;92983.16;;;10.80;96.69
64602;BME280;51013;42.630;23.192;2022-11-09T08:51:18;92993.25;;;10.90;96.18
64602;BME280;51013;42.630;23.192;2022-11-09T08:53:46;92982.88;;;10.94;96.01
64602;BME280;51013;42.630;23.192;2022-11-09T08:56:15;92982.75;;;11.11;95.43
64602;BME280;51013;42.630;23.192;2022-11-09T08:58:43;92987.25;;;11.23;94.22
64602;BME280;51013;42.630;23.192;2022-11-09T09:01:12;92924.94;;;10.90;93.44
64602;BME280;51013;42.630;23.192;2022-11-09T09:03:38;92986.00;;;11.41;91.96
64602;BME280;51013;42.630;23.192;2022-11-09T09:06:06;92891.13;;;10.68;92.63
64602;BME280;51013;42.630;23.192;2022-11-09T09:22:22;92976.97;;;11.88;90.27
64602;BME280;51013;42.630;23.192;2022-11-09T09:25:39;92972.81;;;11.87;90.08
64602;BME280;51013;42.630;23.192;2022-11-09T13:42:43;92732.66;;;18.12;54.63
64602;BME280;51013;42.630;23.192;2022-11-09T15:09:43;92865.69;;;15.52;63.42
64602;BME280;51013;42.630;23.192;2022-11-09T15:12:13;92734.81;;;14.37;64.77
64602;BME280;51013;42.630;23.192;2022-11-09T15:14:41;92827.38;;;14.57;65.68
64602;BME280;51013;42.630;23.192;2022-11-09T15:17:13;92875.22;;;14.91;65.84
64602;BME280;51013;42.630;23.192;2022-11-09T15:19:49;92877.88;;;14.91;65.66
64602;BME280;51013;42.630;23.192;2022-11-09T15:22:46;92868.19;;;14.79;65.44
64602;BME280;51013;42.630;23.192;2022-11-09T15:25:23;92812.09;;;14.31;64.96
64602;BME280;51013;42.630;23.192;2022-11-09T15:28:21;92866.38;;;14.63;64.61
64602;BME280;51013;42.630;23.192;2022-11-09T15:31:08;92695.91;;;13.37;65.33
64602;BME280;51013;42.630;23.192;2022-11-09T15:33:44;92806.75;;;14.08;65.49
64602;BME280;51013;42.630;23.192;2022-11-09T15:36:24;92863.84;;;14.32;65.76
64602;BME280;51013;42.630;23.192;2022-11-09T15:38:58;92864.75;;;14.20;66.15
64602;BME280;51013;42.630;23.192;2022-11-09T15:41:28;92873.22;;;14.10;66.37
64602;BME280;51013;42.630;23.192;2022-11-09T15:47:30;92826.56;;;13.47;66.72
64602;BME280;51013;42.630;23.192;2022-11-09T15:49:59;92870.38;;;13.67;67.13
64602;BME280;51013;42.630;23.192;2022-11-09T15:52:27;92865.53;;;13.53;67.58
64602;BME280;51013;42.630;23.192;2022-11-09T15:54:54;92872.84;;;13.44;67.85
64602;BME280;51013;42.630;23.192;2022-11-09T15:57:22;92691.34;;;11.94;67.86
64602;BME280;51013;42.630;23.192;2022-11-09T15:59:50;92882.41;;;13.05;68.64
64602;BME280;51013;42.630;23.192;2022-11-09T16:02:18;92887.06;;;12.95;69.06
64602;BME280;51013;42.630;23.192;2022-11-09T16:04:46;92623.63;;;11.10;69.42
64602;BME280;51013;42.630;23.192;2022-11-09T16:07:14;92860.38;;;12.69;69.34
64602;BME280;51013;42.630;23.192;2022-11-09T16:09:42;92765.59;;;11.88;69.30
64602;BME280;51013;42.630;23.192;2022-11-09T16:12:09;92887.97;;;12.59;69.95
64602;BME280;51013;42.630;23.192;2022-11-09T16:14:37;92730.72;;;11.38;70.18
64602;BME280;51013;42.630;23.192;2022-11-09T16:17:05;92887.84;;;12.39;69.85
64602;BME280;51013;42.630;23.192;2022-11-09T16:19:32;92769.19;;;11.42;69.82
64602;BME280;51013;42.630;23.192;2022-11-09T16:21:59;92897.19;;;12.25;69.98
64602;BME280;51013;42.630;23.192;2022-11-09T16:24:27;92894.47;;;12.21;70.48
64602;BME280;51013;42.630;23.192;2022-11-09T16:26:54;92729.44;;;11.07;70.34
64602;BME280;51013;42.630;23.192;2022-11-09T16:29:23;92880.03;;;11.90;70.76
64602;BME280;51013;42.630;23.192;2022-11-09T16:31:53;92839.22;;;11.47;70.89
64602;BME280;51013;42.630;23.192;2022-11-09T16:34:21;92865.22;;;11.61;71.39
64602;BME280;51013;42.630;23.192;2022-11-09T16:36:49;92891.41;;;11.70;71.46
64602;BME280;51013;42.630;23.192;2022-11-09T16:39:17;92776.22;;;10.89;71.73
64602;BME280;51013;42.630;23.192;2022-11-09T16:41:47;92858.38;;;11.23;72.02
64602;BME280;51013;42.630;23.192;2022-11-09T16:44:18;92889.88;;;11.44;72.30
64602;BME280;51013;42.630;23.192;2022-11-09T16:46:46;92900.28;;;11.40;72.05
64602;BME280;51013;42.630;23.192;2022-11-09T16:49:15;92747.13;;;10.28;71.73
64602;BME280;51013;42.630;23.192;2022-11-09T16:51:41;92903.63;;;11.16;72.63
64602;BME280;51013;42.630;23.192;2022-11-09T16:54:08;92874.84;;;10.87;72.92
64602;BME280;51013;42.630;23.192;2022-11-09T16:56:35;92879.13;;;10.79;73.09
64602;BME280;51013;42.630;23.192;2022-11-09T16:59:02;92920.84;;;10.80;73.65
64602;BME280;51013;42.630;23.192;2022-11-09T17:01:29;92906.56;;;10.69;73.96
64602;BME280;51013;42.630;23.192;2022-11-09T17:03:56;92916.63;;;10.67;74.38
64602;BME280;51013;42.630;23.192;2022-11-09T17:06:25;92733.97;;;9.40;74.06
64602;BME280;51013;42.630;23.192;2022-11-09T17:08:55;92912.31;;;10.50;74.68
64602;BME280;51013;42.630;23.192;2022-11-09T17:11:23;92766.84;;;9.37;74.42
64602;BME280;51013;42.630;23.192;2022-11-09T17:13:54;92882.69;;;10.20;74.68
64602;BME280;51013;42.630;23.192;2022-11-09T17:16:21;92764.75;;;9.22;74.80
64602;BME280;51013;42.630;23.192;2022-11-09T17:18:51;92917.56;;;10.20;75.14
64602;BME280;51013;42.630;23.192;2022-11-09T17:21:19;92878.53;;;9.89;75.44
64602;BME280;51013;42.630;23.192;2022-11-09T17:23:48;92920.56;;;10.10;75.67
64602;BME280;51013;42.630;23.192;2022-11-09T17:26:16;92874.44;;;9.79;75.32
64602;BME280;51013;42.630;23.192;2022-11-09T17:28:44;92797.94;;;9.18;75.38
64602;BME280;51013;42.630;23.192;2022-11-09T17:31:13;92923.81;;;9.86;75.77
64602;BME280;51013;42.630;23.192;2022-11-09T17:33:40;92895.06;;;9.60;75.89
64602;BME280;51013;42.630;23.192;2022-11-09T17:36:09;92925.13;;;9.71;75.46
64602;BME280;51013;42.630;23.192;2022-11-09T17:38:37;92922.97;;;9.65;75.25
64602;BME280;51013;42.630;23.192;2022-11-09T17:41:07;92815.50;;;8.79;75.99
64602;BME280;51013;42.630;23.192;2022-11-09T17:43:36;92739.81;;;8.30;75.70
64602;BME280;51013;42.630;23.192;2022-11-09T17:46:05;92895.81;;;9.31;75.41
64602;BME280;51013;42.630;23.192;2022-11-09T17:48:33;92940.31;;;9.48;75.93
64602;BME280;51013;42.630;23.192;2022-11-09T17:51:00;92873.09;;;8.96;76.24
64602;BME280;51013;42.630;23.192;2022-11-09T17:53:28;92915.88;;;9.18;76.30
64602;BME280;51013;42.630;23.192;2022-11-09T17:55:56;92935.00;;;9.27;76.23
64602;BME280;51013;42.630;23.192;2022-11-09T17:58:25;92934.38;;;9.21;76.12
64602;BME280;51013;42.630;23.192;2022-11-09T18:00:52;92884.25;;;8.76;76.53
64602;BME280;51013;42.630;23.192;2022-11-09T18:03:19;92929.47;;;9.11;76.79
64602;BME280;51013;42.630;23.192;2022-11-09T18:05:47;92677.31;;;7.29;76.57
64602;BME280;51013;42.630;23.192;2022-11-09T18:08:14;92901.47;;;8.86;76.64
64602;BME280;51013;42.630;23.192;2022-11-09T18:10:43;92692.22;;;7.37;76.78
64602;BME280;51013;42.630;23.192;2022-11-09T18:13:10;92915.19;;;8.74;77.35
64602;BME280;51013;42.630;23.192;2022-11-09T18:15:38;92929.03;;;8.92;82.42
64602;BME280;51013;42.630;23.192;2022-11-09T18:18:06;92803.28;;;8.01;80.06
64602;BME280;51013;42.630;23.192;2022-11-09T18:20:36;92924.41;;;9.06;79.25
64602;BME280;51013;42.630;23.192;2022-11-09T18:23:03;92933.63;;;9.21;78.10
64602;BME280;51013;42.630;23.192;2022-11-09T18:25:30;92936.41;;;9.16;78.19
64602;BME280;51013;42.630;23.192;2022-11-09T18:27:56;92950.72;;;9.27;76.19
64602;BME280;51013;42.630;23.192;2022-11-09T18:30:23;92948.25;;;9.22;75.27
64602;BME280;51013;42.630;23.192;2022-11-09T18:32:52;92946.59;;;9.17;74.76
64602;BME280;51013;42.630;23.192;2022-11-09T18:35:19;92952.16;;;9.07;74.79
64602;BME280;51013;42.630;23.192;2022-11-09T18:37:45;92947.69;;;8.99;75.25
64602;BME280;51013;42.630;23.192;2022-11-09T18:40:14;92942.94;;;8.92;75.47
64602;BME280;51013;42.630;23.192;2022-11-09T18:42:41;92914.91;;;8.67;75.56
64602;BME280;51013;42.630;23.192;2022-11-09T18:45:09;92944.34;;;8.72;75.86
64602;BME280;51013;42.630;23.192;2022-11-09T18:47:36;92929.84;;;8.49;76.07
64602;BME280;51013;42.630;23.192;2022-11-09T18:50:06;92826.34;;;7.81;76.24
64602;BME280;51013;42.630;23.192;2022-11-09T18:52:33;92953.88;;;8.51;76.80
64602;BME280;51013;42.630;23.192;2022-11-09T18:55:04;92923.81;;;8.31;76.92
64602;BME280;51013;42.630;23.192;2022-11-09T18:57:31;92957.09;;;8.39;77.11
64602;BME280;51013;42.630;23.192;2022-11-09T18:59:59;92756.25;;;7.00;76.70